createdAt,value
2018-03-31T00:01:12.561Z,20.00
2018-03-31T00:03:38.423Z,20.67
2018-03-31T00:06:04.157Z,19.03
2018-03-31T00:08:29.878Z,18.40
2018-03-31T00:10:55.966Z,18.30
2018-03-31T00:13:21.754Z,19.57
2018-03-31T00:15:47.598Z,17.70
2018-03-31T00:18:13.424Z,21.47
2018-03-31T00:20:39.152Z,20.37
2018-03-31T00:23:04.872Z,18.80
2018-03-31T00:25:30.684Z,20.93
2018-03-31T00:27:56.497Z,20.23
2018-03-31T00:30:22.229Z,20.67
2018-03-31T00:32:47.997Z,18.57
2018-03-31T00:35:13.806Z,18.57
2018-03-31T00:37:39.568Z,17.57
2018-03-31T00:40:05.416Z,18.37
2018-03-31T00:42:31.146Z,19.93
2018-03-31T00:44:56.860Z,21.10
2018-03-31T00:47:22.621Z,22.37
2018-03-31T00:49:48.404Z,20.33
2018-03-31T00:52:14.233Z,19.37
2018-03-31T00:54:40.010Z,21.10
2018-03-31T00:57:05.742Z,22.13
2018-03-31T00:59:31.457Z,19.43
2018-03-31T01:01:57.252Z,21.57
2018-03-31T01:04:23.128Z,18.67
2018-03-31T01:06:48.858Z,20.03
2018-03-31T01:09:14.628Z,19.93
2018-03-31T01:11:40.346Z,22.60
2018-03-31T01:14:06.116Z,20.37
2018-03-31T01:16:31.974Z,22.40
2018-03-31T01:18:59.150Z,21.13
2018-03-31T01:21:24.921Z,20.87
2018-03-31T01:23:50.675Z,20.50
2018-03-31T01:26:16.497Z,22.00
2018-03-31T01:28:42.315Z,21.60
2018-03-31T01:31:08.088Z,19.43
2018-03-31T01:33:33.820Z,21.53
2018-03-31T01:35:59.533Z,27.07
2018-03-31T01:38:25.358Z,19.80
2018-03-31T01:40:51.152Z,21.23
2018-03-31T01:43:16.880Z,25.20
2018-03-31T01:45:42.637Z,22.40
2018-03-31T01:48:08.370Z,25.33
2018-03-31T01:50:34.162Z,22.13
2018-03-31T01:53:00.022Z,19.80
2018-03-31T01:55:25.729Z,20.33
2018-03-31T01:57:51.454Z,25.43
2018-03-31T02:00:17.212Z,26.07
2018-03-31T02:02:43.015Z,22.63
2018-03-31T02:05:08.838Z,23.60
2018-03-31T02:07:34.840Z,21.77
2018-03-31T02:10:00.565Z,22.10
2018-03-31T02:12:26.290Z,24.50
2018-03-31T02:14:52.077Z,22.53
2018-03-31T02:17:17.882Z,23.37
2018-03-31T02:19:43.691Z,20.83
2018-03-31T02:22:09.464Z,21.40
2018-03-31T02:24:35.196Z,21.53
2018-03-31T02:27:00.933Z,21.37
2018-03-31T02:29:26.729Z,23.07
2018-03-31T02:31:52.450Z,20.70
2018-03-31T02:34:18.175Z,21.33
2018-03-31T02:36:43.973Z,22.63
2018-03-31T02:39:09.695Z,21.43
2018-03-31T02:41:35.422Z,22.17
2018-03-31T02:44:01.555Z,23.67
2018-03-31T02:46:27.308Z,23.80
2018-03-31T02:48:53.049Z,22.70
2018-03-31T02:51:18.816Z,21.80
2018-03-31T02:53:44.534Z,24.20
2018-03-31T02:56:10.262Z,22.90
2018-03-31T02:58:36.030Z,22.33
2018-03-31T03:01:01.746Z,20.77
2018-03-31T03:03:27.472Z,21.87
2018-03-31T03:05:53.341Z,24.07
2018-03-31T03:08:19.074Z,23.13
2018-03-31T03:10:44.787Z,23.13
2018-03-31T03:13:10.565Z,21.37
2018-03-31T03:15:36.272Z,23.97
2018-03-31T03:18:02.106Z,25.47
2018-03-31T03:20:27.878Z,20.87
2018-03-31T03:22:53.601Z,23.17
2018-03-31T03:25:19.321Z,21.40
2018-03-31T03:27:45.084Z,23.50
2018-03-31T03:30:10.906Z,23.47
2018-03-31T03:32:36.632Z,24.60
2018-03-31T03:35:02.398Z,24.03
2018-03-31T03:37:28.122Z,26.30
2018-03-31T03:39:53.844Z,24.03
2018-03-31T03:42:19.703Z,24.50
2018-03-31T03:44:45.431Z,21.97
2018-03-31T03:47:11.147Z,21.23
2018-03-31T03:49:36.930Z,20.13
2018-03-31T03:52:02.674Z,20.93
2018-03-31T03:54:28.504Z,22.97
2018-03-31T03:56:54.323Z,25.47
2018-03-31T03:59:20.050Z,24.03
2018-03-31T04:01:45.773Z,22.03
2018-03-31T04:04:11.546Z,23.70
2018-03-31T04:06:37.357Z,20.00
2018-03-31T04:09:03.089Z,22.30
2018-03-31T04:11:28.856Z,20.83
2018-03-31T04:13:54.572Z,22.40
2018-03-31T04:16:20.364Z,23.47
2018-03-31T04:18:46.249Z,20.63
2018-03-31T04:21:11.995Z,21.70
2018-03-31T04:23:37.708Z,23.30
2018-03-31T04:26:03.468Z,19.63
2018-03-31T04:28:29.192Z,24.77
2018-03-31T04:30:55.029Z,20.07
2018-03-31T04:33:20.797Z,23.53
2018-03-31T04:35:46.611Z,23.27
2018-03-31T04:38:12.344Z,20.53
2018-03-31T04:40:38.088Z,22.10
2018-03-31T04:43:03.912Z,24.87
2018-03-31T04:45:29.628Z,19.77
2018-03-31T04:47:55.400Z,21.43
2018-03-31T04:50:21.129Z,25.50
2018-03-31T04:52:46.920Z,21.40
2018-03-31T04:55:12.782Z,21.90
2018-03-31T04:57:38.533Z,21.03
2018-03-31T05:00:04.246Z,24.00
2018-03-31T05:02:30.029Z,23.50
2018-03-31T05:04:55.779Z,21.10
2018-03-31T05:07:21.593Z,21.87
2018-03-31T05:09:47.352Z,21.53
2018-03-31T05:12:13.085Z,24.07
2018-03-31T05:14:38.807Z,23.67
2018-03-31T05:17:04.569Z,22.40
2018-03-31T05:19:30.384Z,21.40
2018-03-31T05:21:56.152Z,23.07
2018-03-31T05:24:21.920Z,22.00
2018-03-31T05:26:47.636Z,22.03
2018-03-31T05:29:13.339Z,23.70
2018-03-31T05:31:39.209Z,22.93
2018-03-31T05:34:04.936Z,23.40
2018-03-31T05:36:30.669Z,20.83
2018-03-31T05:38:56.432Z,21.73
2018-03-31T05:41:22.161Z,23.33
2018-03-31T05:43:47.956Z,19.93
2018-03-31T05:46:13.729Z,21.80
2018-03-31T05:48:39.457Z,23.43
2018-03-31T05:51:05.186Z,20.93
2018-03-31T05:53:30.965Z,21.17
2018-03-31T05:55:56.809Z,21.03
2018-03-31T05:58:22.597Z,22.33
2018-03-31T06:00:48.348Z,24.17
2018-03-31T06:03:14.103Z,22.57
2018-03-31T06:05:39.893Z,21.90
2018-03-31T06:08:05.857Z,19.67
2018-03-31T06:10:31.581Z,22.40
2018-03-31T06:12:57.382Z,22.30
2018-03-31T06:15:23.168Z,21.70
2018-03-31T06:17:48.938Z,23.50
2018-03-31T06:20:14.765Z,25.17
2018-03-31T06:22:40.534Z,24.00
2018-03-31T06:25:06.258Z,23.83
2018-03-31T06:27:31.981Z,21.97
2018-03-31T06:29:57.830Z,22.10
2018-03-31T06:32:23.838Z,23.60
2018-03-31T06:34:49.561Z,27.53
2018-03-31T06:37:15.326Z,21.97
2018-03-31T06:39:41.054Z,24.90
2018-03-31T06:42:06.773Z,28.33
2018-03-31T06:44:32.821Z,28.13
2018-03-31T06:46:58.537Z,28.17
2018-03-31T06:49:24.285Z,28.27
2018-03-31T06:51:50.029Z,30.03
2018-03-31T06:54:15.739Z,29.33
2018-03-31T06:56:41.452Z,26.67
2018-03-31T06:59:07.225Z,29.60
2018-03-31T07:01:32.959Z,29.43
2018-03-31T07:03:58.698Z,28.90
2018-03-31T07:06:24.524Z,28.53
2018-03-31T07:08:50.245Z,27.80
2018-03-31T07:11:15.966Z,30.77
2018-03-31T07:13:41.736Z,36.73
2018-03-31T07:16:08.583Z,30.27
2018-03-31T07:18:34.445Z,29.40
2018-03-31T07:21:00.192Z,33.10
2018-03-31T07:23:25.913Z,33.47
2018-03-31T07:25:51.648Z,29.90
2018-03-31T07:28:17.437Z,32.00
2018-03-31T07:30:43.147Z,36.17
2018-03-31T07:33:08.963Z,29.60
2018-03-31T07:35:34.825Z,36.17
2018-03-31T07:38:00.606Z,32.20
2018-03-31T07:40:26.348Z,31.33
2018-03-31T07:42:52.097Z,33.73
2018-03-31T07:45:17.862Z,29.67
2018-03-31T07:47:43.585Z,36.10
2018-03-31T07:50:09.344Z,35.83
2018-03-31T07:52:35.078Z,30.57
2018-03-31T07:55:00.821Z,30.47
2018-03-31T07:57:26.621Z,33.30
2018-03-31T07:59:52.328Z,24.47
2018-03-31T08:02:18.065Z,33.70
2018-03-31T08:04:43.861Z,30.93
2018-03-31T08:07:09.577Z,32.80
2018-03-31T08:09:35.293Z,29.40
2018-03-31T08:12:01.060Z,31.20
2018-03-31T08:14:26.852Z,29.27
2018-03-31T08:16:52.568Z,29.17
2018-03-31T08:19:18.328Z,27.43
2018-03-31T08:21:44.057Z,28.90
2018-03-31T08:24:09.794Z,29.10
2018-03-31T08:26:35.548Z,28.60
2018-03-31T08:29:01.265Z,27.70
2018-03-31T08:31:26.977Z,25.20
2018-03-31T08:33:53.090Z,27.27
2018-03-31T08:36:18.892Z,26.80
2018-03-31T08:38:44.626Z,23.90
2018-03-31T08:41:10.397Z,29.00
2018-03-31T08:43:36.228Z,28.50
2018-03-31T08:46:02.029Z,25.90
2018-03-31T08:48:27.805Z,26.30
2018-03-31T08:50:53.528Z,30.63
2018-03-31T08:53:19.245Z,30.20
2018-03-31T08:55:45.013Z,32.57
2018-03-31T08:58:10.770Z,27.83
2018-03-31T09:00:36.613Z,28.10
2018-03-31T09:03:02.378Z,31.80
2018-03-31T09:05:28.102Z,26.90
2018-03-31T09:07:53.833Z,27.97
2018-03-31T09:10:19.593Z,33.43
2018-03-31T09:12:45.361Z,32.27
2018-03-31T09:15:11.085Z,28.60
2018-03-31T09:17:36.854Z,34.70
2018-03-31T09:20:02.613Z,37.77
2018-03-31T09:22:28.382Z,32.90
2018-03-31T09:24:54.160Z,32.27
2018-03-31T09:27:19.902Z,35.10
2018-03-31T09:29:45.665Z,38.23
2018-03-31T09:32:11.590Z,45.17
2018-03-31T09:34:37.318Z,43.03
2018-03-31T09:37:03.037Z,36.97
2018-03-31T09:39:28.819Z,35.77
2018-03-31T09:41:54.556Z,46.50
2018-03-31T09:44:20.645Z,38.07
2018-03-31T09:46:46.521Z,37.30
2018-03-31T09:49:12.217Z,38.23
2018-03-31T09:51:39.213Z,37.30
2018-03-31T09:54:05.089Z,41.83
2018-03-31T09:56:30.900Z,43.20
2018-03-31T09:58:56.604Z,47.60
2018-03-31T10:01:22.368Z,44.00
2018-03-31T10:03:48.072Z,47.03
2018-03-31T10:06:13.797Z,48.53
2018-03-31T10:08:39.548Z,51.40
2018-03-31T10:11:05.255Z,55.83
2018-03-31T10:13:31.002Z,56.87
2018-03-31T10:15:56.768Z,61.10
2018-03-31T10:18:22.472Z,44.03
2018-03-31T10:20:48.188Z,57.03
2018-03-31T10:23:13.937Z,44.17
2018-03-31T10:25:39.740Z,42.63
2018-03-31T10:28:05.469Z,32.07
2018-03-31T10:30:31.242Z,34.77
2018-03-31T10:32:56.976Z,35.30
2018-03-31T10:35:22.814Z,34.63
2018-03-31T10:37:48.565Z,34.33
2018-03-31T10:40:14.328Z,37.23
2018-03-31T10:42:40.103Z,35.27
2018-03-31T10:45:05.910Z,39.93
2018-03-31T10:47:31.802Z,38.27
2018-03-31T10:49:57.530Z,34.10
2018-03-31T10:52:23.296Z,39.70
2018-03-31T10:54:49.019Z,38.20
2018-03-31T10:57:14.750Z,32.20
2018-03-31T10:59:40.597Z,36.07
2018-03-31T11:02:06.311Z,35.40
2018-03-31T11:04:32.025Z,32.87
2018-03-31T11:06:57.796Z,34.00
2018-03-31T11:09:23.528Z,33.60
2018-03-31T11:11:49.337Z,38.17
2018-03-31T11:14:15.110Z,39.23
2018-03-31T11:16:40.828Z,35.83
2018-03-31T11:19:06.550Z,38.23
2018-03-31T11:21:32.317Z,37.47
2018-03-31T11:23:58.660Z,33.20
2018-03-31T11:26:24.398Z,34.30
2018-03-31T11:28:50.148Z,33.90
2018-03-31T11:31:15.931Z,36.07
2018-03-31T11:33:41.635Z,33.57
2018-03-31T11:36:07.504Z,32.40
2018-03-31T11:38:33.214Z,35.73
2018-03-31T11:40:58.958Z,37.27
2018-03-31T11:43:24.835Z,33.40
2018-03-31T11:45:50.573Z,37.37
2018-03-31T11:48:16.393Z,33.37
2018-03-31T11:50:42.430Z,31.73
2018-03-31T11:53:08.156Z,32.90
2018-03-31T11:55:33.865Z,29.00
2018-03-31T11:57:59.624Z,33.20
2018-03-31T12:00:25.448Z,33.43
2018-03-31T12:02:51.181Z,34.60
2018-03-31T12:05:16.947Z,31.87
2018-03-31T12:07:42.665Z,34.37
2018-03-31T12:10:08.552Z,34.27
2018-03-31T12:12:34.401Z,33.63
2018-03-31T12:15:00.132Z,31.77
2018-03-31T12:17:25.869Z,32.47
2018-03-31T12:19:51.631Z,31.70
2018-03-31T12:22:17.340Z,34.87
2018-03-31T12:24:43.167Z,30.37
2018-03-31T12:27:08.936Z,30.83
2018-03-31T12:29:34.673Z,29.80
2018-03-31T12:32:00.380Z,29.13
2018-03-31T12:34:26.145Z,33.03
2018-03-31T12:36:51.965Z,33.07
2018-03-31T12:39:17.681Z,32.73
2018-03-31T12:41:43.441Z,30.93
2018-03-31T12:44:09.161Z,31.13
2018-03-31T12:46:34.873Z,28.43
2018-03-31T12:49:00.745Z,29.30
2018-03-31T12:51:26.453Z,31.70
2018-03-31T12:53:52.228Z,30.40
2018-03-31T12:56:18.246Z,32.33
2018-03-31T12:58:43.969Z,31.80
2018-03-31T13:01:09.768Z,30.30
2018-03-31T13:03:35.697Z,33.13
2018-03-31T13:06:01.410Z,30.17
2018-03-31T13:08:27.136Z,33.07
2018-03-31T13:10:52.909Z,31.97
2018-03-31T13:13:18.745Z,34.93
2018-03-31T13:15:44.470Z,34.93
2018-03-31T13:18:10.264Z,36.60
2018-03-31T13:20:35.976Z,34.83
2018-03-31T13:23:01.726Z,35.20
2018-03-31T13:25:27.568Z,36.53
2018-03-31T13:27:53.289Z,33.00
2018-03-31T13:30:19.010Z,35.47
2018-03-31T13:32:44.772Z,33.30
2018-03-31T13:35:10.492Z,34.97
2018-03-31T13:37:36.308Z,34.73
2018-03-31T13:40:02.116Z,35.40
2018-03-31T13:42:27.848Z,36.47
2018-03-31T13:44:53.565Z,36.20
2018-03-31T13:47:19.321Z,38.50
2018-03-31T13:49:45.131Z,33.60
2018-03-31T13:52:10.844Z,35.13
2018-03-31T13:54:36.704Z,38.60
2018-03-31T13:57:02.426Z,38.13
2018-03-31T13:59:28.133Z,36.30
2018-03-31T14:01:53.996Z,38.60
2018-03-31T14:04:19.709Z,36.77
2018-03-31T14:06:45.430Z,35.17
2018-03-31T14:09:11.188Z,36.63
2018-03-31T14:11:36.938Z,36.07
2018-03-31T14:14:02.744Z,39.07
2018-03-31T14:16:28.508Z,40.07
2018-03-31T14:18:54.217Z,39.80
2018-03-31T14:21:19.942Z,35.03
2018-03-31T14:23:45.696Z,39.47
2018-03-31T14:26:11.501Z,39.40
2018-03-31T14:28:37.295Z,37.57
2018-03-31T14:31:03.044Z,37.63
2018-03-31T14:33:28.772Z,37.97
2018-03-31T14:35:54.512Z,40.23
2018-03-31T14:38:20.377Z,39.60
2018-03-31T14:40:46.084Z,38.63
2018-03-31T14:43:11.806Z,38.57
2018-03-31T14:45:37.577Z,35.63
2018-03-31T14:48:03.397Z,36.47
2018-03-31T14:50:29.227Z,40.83
2018-03-31T14:52:54.989Z,34.20
2018-03-31T14:55:20.795Z,43.83
2018-03-31T14:57:47.226Z,46.93
2018-03-31T15:00:13.092Z,45.43
2018-03-31T15:02:38.897Z,44.83
2018-03-31T15:05:04.612Z,50.30
2018-03-31T15:07:30.494Z,53.60
2018-03-31T15:09:56.467Z,46.97
2018-03-31T15:12:22.246Z,46.37
2018-03-31T15:14:48.101Z,49.03
2018-03-31T15:17:13.857Z,48.93
2018-03-31T15:19:39.552Z,46.17
2018-03-31T15:22:05.308Z,50.07
2018-03-31T15:24:31.044Z,50.27
2018-03-31T15:26:56.770Z,54.43
2018-03-31T15:29:22.524Z,48.17
2018-03-31T15:31:48.245Z,48.57
2018-03-31T15:34:14.107Z,49.90
2018-03-31T15:36:40.043Z,48.00
2018-03-31T15:39:05.776Z,46.43
2018-03-31T15:41:32.356Z,47.80
2018-03-31T15:43:58.127Z,44.43
2018-03-31T15:46:23.998Z,48.23
2018-03-31T15:48:49.869Z,45.60
2018-03-31T15:51:15.630Z,51.37
2018-03-31T15:53:41.355Z,57.00
2018-03-31T15:56:07.236Z,55.37
2018-03-31T15:58:33.007Z,53.53
2018-03-31T16:00:58.712Z,54.07
2018-03-31T16:03:24.573Z,51.07
2018-03-31T16:05:50.357Z,48.90
2018-03-31T16:08:16.088Z,52.93
2018-03-31T16:10:41.809Z,53.93
2018-03-31T16:13:07.566Z,57.13
2018-03-31T16:15:33.300Z,52.40
2018-03-31T16:17:59.022Z,55.20
2018-03-31T16:20:24.794Z,53.90
2018-03-31T16:22:50.517Z,57.83
2018-03-31T16:25:16.258Z,53.37
2018-03-31T16:27:42.463Z,54.17
2018-03-31T16:30:08.214Z,46.63
2018-03-31T16:32:33.982Z,50.97
2018-03-31T16:34:59.818Z,42.53
2018-03-31T16:37:25.715Z,56.63
2018-03-31T16:39:51.505Z,58.63
2018-03-31T16:42:17.569Z,55.70
2018-03-31T16:44:43.448Z,53.17
2018-03-31T16:47:09.241Z,50.07
2018-03-31T16:49:35.042Z,52.90
2018-03-31T16:52:01.231Z,55.23
2018-03-31T16:54:26.965Z,55.60
2018-03-31T16:56:52.792Z,50.90
2018-03-31T16:59:18.517Z,52.87
2018-03-31T17:01:44.726Z,52.80
2018-03-31T17:04:10.615Z,55.30
2018-03-31T17:06:36.389Z,52.03
2018-03-31T17:09:02.544Z,49.80
2018-03-31T17:11:28.616Z,53.37
2018-03-31T17:13:54.470Z,51.80
2018-03-31T17:16:20.261Z,60.90
2018-03-31T17:18:46.016Z,55.67
2018-03-31T17:21:11.732Z,61.43
2018-03-31T17:23:37.443Z,64.80
2018-03-31T17:26:03.212Z,59.90
2018-03-31T17:28:28.917Z,65.43
2018-03-31T17:30:54.663Z,72.80
2018-03-31T17:33:20.432Z,66.87
2018-03-31T17:35:46.152Z,69.80
2018-03-31T17:38:11.870Z,72.27
2018-03-31T17:40:37.706Z,73.80
2018-03-31T17:43:03.521Z,76.00
2018-03-31T17:45:29.240Z,77.73
2018-03-31T17:47:55.017Z,74.37
2018-03-31T17:50:20.797Z,74.33
2018-03-31T17:52:46.517Z,75.57
2018-03-31T17:55:12.270Z,72.63
2018-03-31T17:57:38.001Z,74.20
2018-03-31T18:00:03.738Z,66.17
2018-03-31T18:02:29.499Z,73.40
2018-03-31T18:04:55.217Z,73.97
2018-03-31T18:07:20.996Z,82.40
2018-03-31T18:09:46.771Z,79.10
2018-03-31T18:12:12.520Z,74.90
2018-03-31T18:14:38.293Z,78.03
2018-03-31T18:17:04.315Z,83.70
2018-03-31T18:19:30.144Z,84.60
2018-03-31T18:21:55.857Z,82.23
2018-03-31T18:24:21.606Z,84.07
2018-03-31T18:26:47.321Z,83.77
2018-03-31T18:29:13.140Z,95.07
2018-03-31T18:31:38.949Z,88.67
2018-03-31T18:34:04.814Z,90.03
2018-03-31T18:36:30.557Z,88.40
2018-03-31T18:38:56.309Z,83.70
2018-03-31T18:41:22.008Z,88.03
2018-03-31T18:43:47.842Z,94.97
2018-03-31T18:46:13.951Z,92.20
2018-03-31T18:48:39.689Z,92.83
2018-03-31T18:51:05.743Z,84.83
2018-03-31T18:53:31.532Z,88.67
2018-03-31T18:55:57.267Z,93.20
2018-03-31T18:58:23.275Z,98.53
2018-03-31T19:00:49.060Z,94.70
2018-03-31T19:03:14.769Z,100.73
2018-03-31T19:05:40.495Z,92.80
2018-03-31T19:08:06.276Z,94.13
2018-03-31T19:10:32.097Z,97.17
2018-03-31T19:12:57.914Z,87.33
2018-03-31T19:15:23.685Z,87.50
2018-03-31T19:17:49.406Z,88.33
2018-03-31T19:20:16.968Z,103.00
2018-03-31T19:22:42.733Z,95.37
2018-03-31T19:25:14.545Z,103.97
2018-03-31T19:27:40.269Z,101.43
2018-03-31T19:30:06.028Z,89.57
2018-03-31T19:32:31.733Z,89.73
2018-03-31T19:34:57.449Z,88.43
2018-03-31T19:37:23.284Z,83.60
2018-03-31T19:39:50.043Z,89.93
2018-03-31T19:42:15.754Z,86.50
2018-03-31T19:44:41.493Z,76.53
2018-03-31T19:47:07.435Z,76.20
2018-03-31T19:49:33.206Z,83.37
2018-03-31T19:51:58.953Z,81.13
2018-03-31T19:54:24.660Z,78.13
2018-03-31T19:56:50.374Z,73.93
2018-03-31T19:59:16.195Z,76.30
2018-03-31T20:01:41.945Z,73.83
2018-03-31T20:04:07.761Z,75.87
2018-03-31T20:06:33.506Z,72.40
2018-03-31T20:08:59.256Z,72.67
2018-03-31T20:11:24.968Z,67.93
2018-03-31T20:13:51.022Z,69.20
2018-03-31T20:16:16.779Z,72.57
2018-03-31T20:18:42.497Z,66.37
2018-03-31T20:21:08.254Z,69.73
2018-03-31T20:23:33.967Z,66.97
2018-03-31T20:26:00.045Z,62.70
2018-03-31T20:28:25.816Z,59.93
2018-03-31T20:30:51.534Z,61.40
2018-03-31T20:33:17.274Z,61.43
2018-03-31T20:35:43.774Z,60.03
2018-03-31T20:38:09.499Z,60.97
2018-03-31T20:40:35.225Z,61.47
2018-03-31T20:43:00.972Z,68.43
2018-03-31T20:45:26.693Z,64.40
2018-03-31T20:47:52.579Z,61.33
2018-03-31T20:50:18.359Z,62.60
2018-03-31T20:52:44.197Z,67.13
2018-03-31T20:55:09.963Z,67.10
2018-03-31T20:57:36.084Z,68.13
2018-03-31T21:00:01.818Z,63.70
2018-03-31T21:02:27.809Z,56.73
2018-03-31T21:04:53.933Z,59.10
2018-03-31T21:07:19.681Z,61.77
2018-03-31T21:09:45.546Z,71.93
2018-03-31T21:12:11.395Z,61.90
2018-03-31T21:14:37.118Z,58.57
2018-03-31T21:17:02.854Z,57.33
2018-03-31T21:19:28.640Z,59.30
2018-03-31T21:21:54.576Z,53.80
2018-03-31T21:24:20.301Z,59.77
2018-03-31T21:26:46.097Z,62.57
2018-03-31T21:29:11.808Z,58.10
2018-03-31T21:31:37.524Z,57.23
2018-03-31T21:34:03.345Z,57.37
2018-03-31T21:36:29.084Z,50.97
2018-03-31T21:38:54.807Z,49.77
2018-03-31T21:41:20.555Z,46.20
2018-03-31T21:43:46.360Z,47.33
2018-03-31T21:46:12.065Z,48.60
2018-03-31T21:48:37.812Z,49.90
2018-03-31T21:51:03.553Z,52.17
2018-03-31T21:53:29.283Z,54.17
2018-03-31T21:55:55.023Z,55.30
2018-03-31T21:58:20.746Z,53.03
2018-03-31T22:00:46.981Z,57.77
2018-03-31T22:03:12.779Z,53.50
2018-03-31T22:05:38.521Z,55.73
2018-03-31T22:08:04.237Z,59.97
2018-03-31T22:10:30.086Z,53.53
2018-03-31T22:13:01.994Z,58.50
2018-03-31T22:15:33.772Z,51.77
2018-03-31T22:17:59.495Z,50.10
2018-03-31T22:20:25.209Z,52.53
2018-03-31T22:22:50.954Z,56.23
2018-03-31T22:25:16.687Z,59.20
2018-03-31T22:27:42.402Z,53.60
2018-03-31T22:30:08.140Z,54.57
2018-03-31T22:32:33.865Z,50.10
2018-03-31T22:34:59.591Z,48.33
2018-03-31T22:37:25.561Z,47.83
2018-03-31T22:39:51.277Z,45.07
2018-03-31T22:42:17.001Z,45.37
2018-03-31T22:44:42.752Z,47.47
2018-03-31T22:47:08.470Z,42.73
2018-03-31T22:49:34.204Z,40.20
2018-03-31T22:51:59.972Z,41.67
2018-03-31T22:54:25.713Z,43.63
2018-03-31T22:56:51.438Z,43.40
2018-03-31T22:59:17.185Z,41.80
2018-03-31T23:01:42.900Z,41.27
2018-03-31T23:04:08.609Z,35.67
2018-03-31T23:06:34.347Z,35.07
2018-03-31T23:09:00.057Z,34.53
2018-03-31T23:11:26.705Z,38.73
2018-03-31T23:13:52.459Z,39.73
2018-03-31T23:16:18.198Z,36.70
2018-03-31T23:18:43.944Z,30.77
2018-03-31T23:21:09.692Z,32.47
2018-03-31T23:23:35.402Z,31.63
2018-03-31T23:26:01.134Z,33.40
2018-03-31T23:28:26.907Z,30.67
2018-03-31T23:30:52.634Z,29.13
2018-03-31T23:33:18.357Z,27.50
2018-03-31T23:35:44.112Z,26.97
2018-03-31T23:38:09.812Z,27.67
2018-03-31T23:40:35.522Z,27.30
2018-03-31T23:43:01.289Z,25.37
2018-03-31T23:45:27.013Z,26.97
2018-03-31T23:47:52.746Z,29.87
2018-03-31T23:50:18.495Z,30.27
2018-03-31T23:52:44.209Z,29.50
2018-03-31T23:55:09.937Z,30.17
2018-03-31T23:57:35.758Z,25.87
